Calvin, Oklahoma
Current Conditions -  °F | °C
As of 12:55 AM on Thursday 23 Oct 2014 (Local Time) from KADH Reporting Station
Overcast Overcast  
Wind Chill: 63°   Ceiling: 7500
Heat Index: 63°   Visibility: 10mi
Dew Point: 57°   Wind: 8mph
Humidity: 82%   Direction: 140°SE
Pressure: 30.12"   Gusts: NA
Location:  34.97°N, 96.25°W
Report Text: KADH 230555Z AUTO 14007KT 10SM OVC075 17/14 A3012 RMK AO2
Loading
Personal Weather Stations






























Interactive Weather Map
Tropical Storm Tracking
New forecast layout! Learn more

10-Day Weather Forecast

Advertisements
Track Severe Weather on mobile